EZS49KR LSGG-LFKB
Flight info
| Callsign | EZS49KR |
|---|---|
| Flight time | 0h 58m |
| Altitude | 33000 |
| Route | MEDAM DCT VEVAR DCT BARSO DCT KOLON DCT NARTI UP991 NIRDO |
| Aircraft | A320/M-SDE2E3FGHIJ1RWXYZ/LB1 |
Departure
| Time | 2026-04-17 00:32 |
|---|---|
| Airport | Geneva International Airport (LSGG) |
Arrival
| Time | 2026-04-17 01:30 |
|---|---|
| Airport | Bastia-Poretta International airport (LFKB) |
| Time | Latitude | Longitude | Altitude | Speed | Heading |
|---|---|---|---|---|---|
| 2026-04-16 23:51 | 46.23278 | 6.10609 | 1400 ft | 0 kts | 181° |
| 2026-04-17 00:28 | 46.23270 | 6.10609 | 1393 ft | 6 kts | 181° |
| 2026-04-17 00:28 | 46.23247 | 6.10576 | 1393 ft | 6 kts | 311° |
| 2026-04-17 00:28 | 46.23276 | 6.10466 | 1395 ft | 18 kts | 234° |
| 2026-04-17 00:29 | 46.23158 | 6.10288 | 1393 ft | 30 kts | 229° |
| 2026-04-17 00:29 | 46.23015 | 6.10060 | 1404 ft | 31 kts | 225° |
| 2026-04-17 00:29 | 46.22863 | 6.09843 | 1398 ft | 31 kts | 226° |
| 2026-04-17 00:29 | 46.22712 | 6.09623 | 1398 ft | 31 kts | 227° |
| 2026-04-17 00:30 | 46.22567 | 6.09394 | 1400 ft | 30 kts | 241° |
| 2026-04-17 00:30 | 46.22587 | 6.09169 | 1415 ft | 18 kts | 341° |
| 2026-04-17 00:30 | 46.22682 | 6.09236 | 1417 ft | 15 kts | 45° |
| 2026-04-17 00:30 | 46.22755 | 6.09350 | 1417 ft | 6 kts | 46° |
| 2026-04-17 00:31 | 46.22764 | 6.09365 | 1421 ft | 17 kts | 46° |
| 2026-04-17 00:31 | 46.23037 | 6.09765 | 1412 ft | 91 kts | 45° |
| 2026-04-17 00:31 | 46.23629 | 6.10638 | 1383 ft | 149 kts | 45° |
| 2026-04-17 00:31 | 46.24454 | 6.11841 | 1543 ft | 179 kts | 46° |
| 2026-04-17 00:32 | 46.25290 | 6.13208 | 2125 ft | 181 kts | 47° |
| 2026-04-17 00:32 | 46.26132 | 6.14548 | 2909 ft | 178 kts | 48° |
| 2026-04-17 00:32 | 46.26932 | 6.15864 | 3577 ft | 177 kts | 46° |
| 2026-04-17 00:32 | 46.27849 | 6.17188 | 3873 ft | 197 kts | 44° |
| 2026-04-17 00:33 | 46.28894 | 6.18640 | 4145 ft | 218 kts | 44° |
| 2026-04-17 00:33 | 46.30034 | 6.20237 | 4523 ft | 237 kts | 44° |
| 2026-04-17 00:33 | 46.31228 | 6.21930 | 5197 ft | 243 kts | 45° |
| 2026-04-17 00:33 | 46.32438 | 6.23662 | 5918 ft | 247 kts | 45° |
| 2026-04-17 00:34 | 46.33666 | 6.25435 | 6627 ft | 252 kts | 45° |
| 2026-04-17 00:34 | 46.34916 | 6.27255 | 7227 ft | 261 kts | 46° |
| 2026-04-17 00:34 | 46.35925 | 6.29527 | 7664 ft | 278 kts | 76° |
| 2026-04-17 00:34 | 46.35941 | 6.32337 | 8106 ft | 285 kts | 107° |
| 2026-04-17 00:35 | 46.34958 | 6.34726 | 8201 ft | 282 kts | 139° |
| 2026-04-17 00:35 | 46.33232 | 6.35968 | 8218 ft | 280 kts | 173° |
| 2026-04-17 00:35 | 46.31308 | 6.35768 | 8225 ft | 280 kts | 195° |
| 2026-04-17 00:35 | 46.29456 | 6.34895 | 8221 ft | 281 kts | 201° |
| 2026-04-17 00:36 | 46.27632 | 6.33889 | 8221 ft | 281 kts | 201° |
| 2026-04-17 00:36 | 46.25787 | 6.32958 | 8216 ft | 281 kts | 198° |
| 2026-04-17 00:36 | 46.23914 | 6.32154 | 8221 ft | 281 kts | 195° |
| 2026-04-17 00:36 | 46.22018 | 6.31461 | 8219 ft | 281 kts | 193° |
| 2026-04-17 00:37 | 46.20101 | 6.30897 | 8221 ft | 281 kts | 187° |
| 2026-04-17 00:37 | 46.18150 | 6.30722 | 8220 ft | 281 kts | 182° |
| 2026-04-17 00:37 | 46.16198 | 6.30611 | 8221 ft | 281 kts | 182° |
| 2026-04-17 00:37 | 46.14242 | 6.30502 | 8218 ft | 281 kts | 182° |
| 2026-04-17 00:38 | 46.12292 | 6.30395 | 8219 ft | 281 kts | 182° |
| 2026-04-17 00:38 | 46.10337 | 6.30284 | 8218 ft | 281 kts | 182° |
| 2026-04-17 00:38 | 46.08372 | 6.30167 | 8611 ft | 284 kts | 182° |
| 2026-04-17 00:38 | 46.06395 | 6.30049 | 9495 ft | 286 kts | 182° |
| 2026-04-17 00:39 | 46.04391 | 6.29929 | 10290 ft | 290 kts | 183° |
| 2026-04-17 00:39 | 46.02305 | 6.29805 | 10629 ft | 311 kts | 183° |
| 2026-04-17 00:39 | 46.00070 | 6.29668 | 10964 ft | 329 kts | 183° |
| 2026-04-17 00:39 | 45.97755 | 6.29527 | 11612 ft | 336 kts | 183° |
| 2026-04-17 00:40 | 45.95402 | 6.29388 | 12331 ft | 341 kts | 183° |
| 2026-04-17 00:40 | 45.93019 | 6.29249 | 13049 ft | 345 kts | 183° |
| 2026-04-17 00:40 | 45.90606 | 6.29433 | 13742 ft | 351 kts | 171° |
| 2026-04-17 00:40 | 45.88245 | 6.30389 | 14373 ft | 357 kts | 158° |
| 2026-04-17 00:41 | 45.86059 | 6.32111 | 14988 ft | 362 kts | 145° |
| 2026-04-17 00:41 | 45.84030 | 6.34286 | 15596 ft | 366 kts | 143° |
| 2026-04-17 00:41 | 45.81982 | 6.36476 | 16213 ft | 369 kts | 144° |
| 2026-04-17 00:41 | 45.79907 | 6.38683 | 16822 ft | 373 kts | 144° |
| 2026-04-17 00:42 | 45.77839 | 6.40878 | 17414 ft | 376 kts | 144° |
| 2026-04-17 00:42 | 45.75952 | 6.42876 | 17929 ft | 380 kts | 144° |
| 2026-04-17 00:42 | 45.73815 | 6.45132 | 18512 ft | 384 kts | 144° |
| 2026-04-17 00:42 | 45.71654 | 6.47410 | 19028 ft | 387 kts | 144° |
| 2026-04-17 00:43 | 45.69473 | 6.49710 | 19554 ft | 391 kts | 144° |
| 2026-04-17 00:43 | 45.67280 | 6.52029 | 20072 ft | 394 kts | 143° |
| 2026-04-17 00:43 | 45.65068 | 6.54365 | 20589 ft | 397 kts | 143° |
| 2026-04-17 00:43 | 45.62802 | 6.56758 | 21124 ft | 401 kts | 143° |
| 2026-04-17 00:44 | 45.60711 | 6.58965 | 21612 ft | 404 kts | 143° |
| 2026-04-17 00:44 | 45.58442 | 6.61354 | 22133 ft | 407 kts | 143° |
| 2026-04-17 00:44 | 45.56151 | 6.63760 | 22670 ft | 410 kts | 143° |
| 2026-04-17 00:44 | 45.53845 | 6.66176 | 23158 ft | 413 kts | 143° |
| 2026-04-17 00:45 | 45.51518 | 6.68609 | 23673 ft | 416 kts | 143° |
| 2026-04-17 00:45 | 45.49172 | 6.71061 | 24106 ft | 420 kts | 143° |
| 2026-04-17 00:45 | 45.46812 | 6.73529 | 24518 ft | 422 kts | 143° |
| 2026-04-17 00:45 | 45.44438 | 6.76005 | 24917 ft | 424 kts | 144° |
| 2026-04-17 00:46 | 45.42032 | 6.78461 | 25307 ft | 427 kts | 144° |
| 2026-04-17 00:46 | 45.39596 | 6.80906 | 25713 ft | 429 kts | 145° |
| 2026-04-17 00:46 | 45.37146 | 6.83344 | 26085 ft | 431 kts | 145° |
| 2026-04-17 00:46 | 45.34677 | 6.85791 | 26454 ft | 434 kts | 145° |
| 2026-04-17 00:47 | 45.32193 | 6.88252 | 26830 ft | 436 kts | 145° |
| 2026-04-17 00:47 | 45.29689 | 6.90709 | 27191 ft | 438 kts | 148° |
| 2026-04-17 00:47 | 45.26998 | 6.92741 | 27546 ft | 440 kts | 158° |
| 2026-04-17 00:47 | 45.24096 | 6.94129 | 27910 ft | 441 kts | 167° |
| 2026-04-17 00:48 | 45.21067 | 6.94845 | 28247 ft | 442 kts | 175° |
| 2026-04-17 00:48 | 45.18002 | 6.95314 | 28587 ft | 444 kts | 175° |
| 2026-04-17 00:48 | 45.14919 | 6.95792 | 28919 ft | 446 kts | 175° |
| 2026-04-17 00:48 | 45.11820 | 6.96279 | 29248 ft | 449 kts | 174° |
| 2026-04-17 00:49 | 45.08714 | 6.96771 | 29574 ft | 451 kts | 174° |
| 2026-04-17 00:49 | 45.06645 | 6.97097 | 29795 ft | 452 kts | 174° |
| 2026-04-17 00:49 | 45.03293 | 6.97623 | 30114 ft | 454 kts | 174° |
| 2026-04-17 00:49 | 45.00146 | 6.98114 | 30405 ft | 456 kts | 174° |
| 2026-04-17 00:50 | 44.96983 | 6.98608 | 30654 ft | 458 kts | 174° |
| 2026-04-17 00:50 | 44.93809 | 6.99104 | 30896 ft | 460 kts | 174° |
| 2026-04-17 00:50 | 44.90626 | 6.99597 | 31116 ft | 461 kts | 175° |
| 2026-04-17 00:50 | 44.87431 | 7.00091 | 31333 ft | 463 kts | 175° |
| 2026-04-17 00:51 | 44.84216 | 7.00587 | 31576 ft | 464 kts | 175° |
| 2026-04-17 00:51 | 44.81003 | 7.00997 | 31898 ft | 463 kts | 180° |
| 2026-04-17 00:51 | 44.77799 | 7.00830 | 32210 ft | 460 kts | 188° |
| 2026-04-17 00:51 | 44.74627 | 7.00238 | 32518 ft | 460 kts | 189° |
| 2026-04-17 00:52 | 44.71460 | 6.99638 | 32836 ft | 459 kts | 189° |
| 2026-04-17 00:52 | 44.68297 | 6.99043 | 33112 ft | 459 kts | 189° |
| 2026-04-17 00:52 | 44.62040 | 6.97875 | 33195 ft | 445 kts | 189° |
| 2026-04-17 00:53 | 44.55926 | 6.96733 | 33197 ft | 442 kts | 189° |
| 2026-04-17 00:53 | 44.49834 | 6.95593 | 33197 ft | 442 kts | 189° |
| 2026-04-17 00:54 | 44.43738 | 6.94461 | 33196 ft | 442 kts | 189° |
| 2026-04-17 00:54 | 44.37682 | 6.93349 | 33183 ft | 442 kts | 189° |
| 2026-04-17 00:55 | 44.31580 | 6.92230 | 33185 ft | 442 kts | 189° |
| 2026-04-17 00:55 | 44.25480 | 6.91098 | 33177 ft | 442 kts | 189° |
| 2026-04-17 00:56 | 44.19373 | 6.89957 | 33174 ft | 442 kts | 189° |
| 2026-04-17 00:56 | 44.13247 | 6.89245 | 33169 ft | 443 kts | 178° |
| 2026-04-17 00:57 | 44.07096 | 6.90131 | 33168 ft | 445 kts | 174° |
| 2026-04-17 00:57 | 44.02983 | 6.90759 | 33163 ft | 445 kts | 174° |
| 2026-04-17 00:58 | 44.00066 | 6.91187 | 33160 ft | 445 kts | 175° |
| 2026-04-17 00:59 | 43.94050 | 6.92071 | 33154 ft | 445 kts | 174° |
| 2026-04-17 00:59 | 43.87896 | 6.92989 | 33147 ft | 445 kts | 174° |
| 2026-04-17 01:00 | 43.81745 | 6.93906 | 33141 ft | 445 kts | 174° |
| 2026-04-17 01:00 | 43.75656 | 6.95324 | 33129 ft | 444 kts | 161° |
| 2026-04-17 01:01 | 43.70228 | 6.99284 | 33124 ft | 442 kts | 140° |
| 2026-04-17 01:01 | 43.65969 | 7.05357 | 33116 ft | 440 kts | 129° |
| 2026-04-17 01:02 | 43.61990 | 7.11722 | 33117 ft | 441 kts | 129° |
| 2026-04-17 01:02 | 43.57972 | 7.18120 | 33124 ft | 441 kts | 129° |
| 2026-04-17 01:03 | 43.54347 | 7.24898 | 33123 ft | 438 kts | 115° |
| 2026-04-17 01:03 | 43.51800 | 7.32504 | 33123 ft | 437 kts | 112° |
| 2026-04-17 01:04 | 43.49290 | 7.40135 | 33128 ft | 438 kts | 112° |
| 2026-04-17 01:04 | 43.46765 | 7.47763 | 33125 ft | 438 kts | 112° |
| 2026-04-17 01:05 | 43.44370 | 7.55002 | 33127 ft | 438 kts | 112° |
| 2026-04-17 01:05 | 43.41846 | 7.62628 | 33137 ft | 437 kts | 112° |
| 2026-04-17 01:06 | 43.39316 | 7.70229 | 33137 ft | 437 kts | 112° |
| 2026-04-17 01:06 | 43.36782 | 7.77770 | 32969 ft | 427 kts | 112° |
| 2026-04-17 01:07 | 43.35544 | 7.81450 | 32581 ft | 421 kts | 112° |
| 2026-04-17 01:07 | 43.34321 | 7.85087 | 32137 ft | 417 kts | 112° |
| 2026-04-17 01:07 | 43.33113 | 7.88686 | 31686 ft | 414 kts | 112° |
| 2026-04-17 01:07 | 43.31914 | 7.92263 | 31239 ft | 410 kts | 112° |
| 2026-04-17 01:08 | 43.30725 | 7.95808 | 30802 ft | 407 kts | 112° |
| 2026-04-17 01:08 | 43.29563 | 7.99273 | 30342 ft | 402 kts | 112° |
| 2026-04-17 01:08 | 43.28397 | 8.02737 | 29551 ft | 397 kts | 112° |
| 2026-04-17 01:08 | 43.27240 | 8.06155 | 28761 ft | 393 kts | 112° |
| 2026-04-17 01:09 | 43.26094 | 8.09533 | 28001 ft | 389 kts | 112° |
| 2026-04-17 01:09 | 43.24959 | 8.12873 | 27252 ft | 384 kts | 112° |
| 2026-04-17 01:09 | 43.23840 | 8.16177 | 26533 ft | 380 kts | 112° |
| 2026-04-17 01:09 | 43.22732 | 8.19457 | 25822 ft | 376 kts | 112° |
| 2026-04-17 01:10 | 43.21638 | 8.22701 | 25219 ft | 375 kts | 112° |
| 2026-04-17 01:10 | 43.20545 | 8.25930 | 24812 ft | 372 kts | 112° |
| 2026-04-17 01:10 | 43.19457 | 8.29128 | 24400 ft | 369 kts | 112° |
| 2026-04-17 01:10 | 43.18371 | 8.32302 | 23995 ft | 367 kts | 112° |
| 2026-04-17 01:11 | 43.17287 | 8.35464 | 23566 ft | 365 kts | 112° |
| 2026-04-17 01:11 | 43.16214 | 8.38602 | 23099 ft | 363 kts | 112° |
| 2026-04-17 01:11 | 43.15154 | 8.41726 | 22655 ft | 360 kts | 111° |
| 2026-04-17 01:11 | 43.14367 | 8.44937 | 22230 ft | 354 kts | 100° |
| 2026-04-17 01:12 | 43.13908 | 8.48232 | 21807 ft | 351 kts | 98° |
| 2026-04-17 01:12 | 43.13458 | 8.51505 | 21391 ft | 349 kts | 98° |
| 2026-04-17 01:12 | 43.13001 | 8.54754 | 20999 ft | 346 kts | 98° |
| 2026-04-17 01:12 | 43.12545 | 8.57982 | 20606 ft | 344 kts | 98° |
| 2026-04-17 01:13 | 43.12093 | 8.61179 | 20103 ft | 340 kts | 98° |
| 2026-04-17 01:13 | 43.11647 | 8.64342 | 19499 ft | 337 kts | 98° |
| 2026-04-17 01:13 | 43.11207 | 8.67481 | 18912 ft | 335 kts | 98° |
| 2026-04-17 01:13 | 43.10770 | 8.70599 | 18328 ft | 332 kts | 98° |
| 2026-04-17 01:14 | 43.10334 | 8.73682 | 17697 ft | 329 kts | 98° |
| 2026-04-17 01:14 | 43.09901 | 8.76737 | 17084 ft | 326 kts | 98° |
| 2026-04-17 01:14 | 43.09474 | 8.79770 | 16501 ft | 323 kts | 99° |
| 2026-04-17 01:14 | 43.09056 | 8.82735 | 15933 ft | 320 kts | 99° |
| 2026-04-17 01:15 | 43.08628 | 8.85760 | 15406 ft | 319 kts | 99° |
| 2026-04-17 01:15 | 43.08212 | 8.88687 | 15024 ft | 317 kts | 99° |
| 2026-04-17 01:15 | 43.07793 | 8.91630 | 14634 ft | 315 kts | 99° |
| 2026-04-17 01:15 | 43.07373 | 8.94555 | 14253 ft | 313 kts | 99° |
| 2026-04-17 01:16 | 43.06953 | 8.97465 | 13861 ft | 311 kts | 99° |
| 2026-04-17 01:16 | 43.06535 | 9.00359 | 13431 ft | 309 kts | 100° |
| 2026-04-17 01:16 | 43.06120 | 9.03227 | 13018 ft | 306 kts | 100° |
| 2026-04-17 01:16 | 43.05710 | 9.06071 | 12626 ft | 303 kts | 100° |
| 2026-04-17 01:17 | 43.05257 | 9.08876 | 12217 ft | 301 kts | 106° |
| 2026-04-17 01:17 | 43.04610 | 9.11589 | 11817 ft | 299 kts | 107° |
| 2026-04-17 01:17 | 43.03963 | 9.14277 | 11419 ft | 296 kts | 107° |
| 2026-04-17 01:17 | 43.03324 | 9.16941 | 11023 ft | 294 kts | 107° |
| 2026-04-17 01:18 | 43.02689 | 9.19579 | 10626 ft | 291 kts | 108° |
| 2026-04-17 01:18 | 43.02059 | 9.22200 | 10234 ft | 289 kts | 108° |
| 2026-04-17 01:18 | 43.01436 | 9.24794 | 9853 ft | 286 kts | 108° |
| 2026-04-17 01:18 | 43.00818 | 9.27359 | 9432 ft | 283 kts | 108° |
| 2026-04-17 01:19 | 43.00203 | 9.29900 | 9008 ft | 280 kts | 108° |
| 2026-04-17 01:19 | 42.99590 | 9.32423 | 8612 ft | 279 kts | 108° |
| 2026-04-17 01:19 | 42.98983 | 9.34927 | 8236 ft | 277 kts | 108° |
| 2026-04-17 01:19 | 42.98380 | 9.37415 | 7852 ft | 275 kts | 108° |
| 2026-04-17 01:20 | 42.97779 | 9.39886 | 7476 ft | 273 kts | 108° |
| 2026-04-17 01:20 | 42.97248 | 9.42078 | 7139 ft | 272 kts | 108° |
| 2026-04-17 01:20 | 42.96656 | 9.44521 | 6768 ft | 270 kts | 108° |
| 2026-04-17 01:20 | 42.96066 | 9.46945 | 6391 ft | 268 kts | 108° |
| 2026-04-17 01:21 | 42.95477 | 9.49355 | 5983 ft | 267 kts | 108° |
| 2026-04-17 01:21 | 42.94890 | 9.51749 | 5566 ft | 266 kts | 108° |
| 2026-04-17 01:21 | 42.94311 | 9.54111 | 5353 ft | 257 kts | 108° |
| 2026-04-17 01:21 | 42.93752 | 9.56364 | 5218 ft | 244 kts | 111° |
| 2026-04-17 01:22 | 42.92832 | 9.58231 | 5038 ft | 236 kts | 138° |
| 2026-04-17 01:22 | 42.91622 | 9.59198 | 4764 ft | 235 kts | 162° |
| 2026-04-17 01:22 | 42.90004 | 9.59362 | 4399 ft | 236 kts | 190° |
| 2026-04-17 01:22 | 42.88395 | 9.58789 | 4020 ft | 236 kts | 194° |
| 2026-04-17 01:23 | 42.86810 | 9.58201 | 3678 ft | 236 kts | 194° |
| 2026-04-17 01:23 | 42.85247 | 9.57628 | 3361 ft | 235 kts | 195° |
| 2026-04-17 01:23 | 42.83720 | 9.56769 | 2997 ft | 235 kts | 206° |
| 2026-04-17 01:23 | 42.82258 | 9.55780 | 2647 ft | 234 kts | 206° |
| 2026-04-17 01:24 | 42.80828 | 9.54821 | 2500 ft | 230 kts | 206° |
| 2026-04-17 01:24 | 42.79399 | 9.53862 | 2500 ft | 229 kts | 206° |
| 2026-04-17 01:24 | 42.77970 | 9.52904 | 2504 ft | 229 kts | 206° |
| 2026-04-17 01:24 | 42.76583 | 9.51971 | 2500 ft | 215 kts | 206° |
| 2026-04-17 01:25 | 42.75266 | 9.51085 | 2504 ft | 207 kts | 206° |
| 2026-04-17 01:25 | 42.74038 | 9.50260 | 2528 ft | 188 kts | 206° |
| 2026-04-17 01:25 | 42.72918 | 9.49509 | 2501 ft | 171 kts | 206° |
| 2026-04-17 01:25 | 42.71891 | 9.48822 | 2497 ft | 160 kts | 206° |
| 2026-04-17 01:26 | 42.70902 | 9.48161 | 2503 ft | 156 kts | 206° |
| 2026-04-17 01:26 | 42.69936 | 9.47514 | 2506 ft | 151 kts | 206° |
| 2026-04-17 01:26 | 42.68992 | 9.46884 | 2514 ft | 151 kts | 204° |
| 2026-04-17 01:26 | 42.67981 | 9.46545 | 2489 ft | 151 kts | 183° |
| 2026-04-17 01:27 | 42.66932 | 9.46595 | 2234 ft | 150 kts | 176° |
| 2026-04-17 01:27 | 42.65892 | 9.46671 | 2010 ft | 149 kts | 176° |
| 2026-04-17 01:27 | 42.64856 | 9.46745 | 1794 ft | 149 kts | 176° |
| 2026-04-17 01:27 | 42.63820 | 9.46820 | 1534 ft | 149 kts | 177° |
| 2026-04-17 01:28 | 42.62796 | 9.46891 | 1345 ft | 147 kts | 178° |
| 2026-04-17 01:28 | 42.61781 | 9.46966 | 1194 ft | 146 kts | 176° |
| 2026-04-17 01:28 | 42.60773 | 9.47042 | 961 ft | 144 kts | 178° |
| 2026-04-17 01:28 | 42.59782 | 9.47113 | 773 ft | 142 kts | 177° |
| 2026-04-17 01:29 | 42.58803 | 9.47195 | 583 ft | 141 kts | 177° |
| 2026-04-17 01:29 | 42.56905 | 9.47696 | 197 ft | 139 kts | 166° |
| 2026-04-17 01:29 | 42.55985 | 9.48068 | 58 ft | 137 kts | 165° |
| 2026-04-17 01:30 | 42.55156 | 9.48429 | 39 ft | 116 kts | 165° |
| 2026-04-17 01:30 | 42.54590 | 9.48651 | 32 ft | 43 kts | 163° |
| 2026-04-17 01:30 | 42.54328 | 9.48755 | 34 ft | 37 kts | 163° |
| 2026-04-17 01:30 | 42.54154 | 9.48743 | 35 ft | 22 kts | 224° |
| 2026-04-17 01:31 | 42.54148 | 9.48558 | 35 ft | 21 kts | 302° |
| 2026-04-17 01:31 | 42.54275 | 9.48466 | 35 ft | 22 kts | 342° |
| 2026-04-17 01:31 | 42.54422 | 9.48409 | 35 ft | 22 kts | 2° |
| 2026-04-17 01:31 | 42.54575 | 9.48386 | 35 ft | 23 kts | 339° |
| 2026-04-17 01:32 | 42.54709 | 9.48328 | 35 ft | 14 kts | 343° |
| 2026-04-17 01:32 | 42.54801 | 9.48291 | 35 ft | 13 kts | 343° |
| 2026-04-17 01:32 | 42.54885 | 9.48255 | 35 ft | 14 kts | 342° |
| 2026-04-17 01:32 | 42.54895 | 9.48198 | 35 ft | 6 kts | 246° |
| 2026-04-17 01:33 | 42.54883 | 9.48158 | 35 ft | 0 kts | 251° |
| 2026-04-17 01:33 | 42.54883 | 9.48157 | 35 ft | 0 kts | 252° |
| 2026-04-17 01:33 | 42.54883 | 9.48154 | 35 ft | 1 kts | 263° |
| 2026-04-17 01:33 | 42.54881 | 9.48142 | 35 ft | 0 kts | 254° |
| 2026-04-17 01:34 | 42.54880 | 9.48136 | 33 ft | 0 kts | 254° |